Time;durP1;ratioP1;P1;durP2;ratioP2;P2;SDS_P1;SDS_P2;PMS_P1;PMS_P2;Temp;Humidity;BMP_temperature;BMP_pressure;BME280_temperature;BME280_humidity;BME280_pressure;Samples;Min_cycle;Max_cycle;Signal;HPM_P1;HPM_P2
2021/09/24 00:00:28;;;;;;;6.07;2.25;;;12.70;68.80;;;;;;5035871;28;20186;-77
2021/09/24 00:02:54;;;;;;;5.00;2.33;;;12.60;69.00;;;;;;5037302;28;20017;-78
2021/09/24 00:05:21;;;;;;;4.13;2.22;;;12.60;68.90;;;;;;5037117;28;20029;-77
2021/09/24 00:07:47;;;;;;;4.70;2.38;;;12.70;68.90;;;;;;5034758;28;20013;-77
2021/09/24 00:10:15;;;;;;;4.82;2.10;;;12.70;69.20;;;;;;5035983;28;20036;-77
2021/09/24 00:12:41;;;;;;;3.33;1.90;;;12.70;69.20;;;;;;5036964;28;20022;-77
2021/09/24 00:15:11;;;;;;;3.28;2.00;;;12.70;69.20;;;;;;5037212;28;20102;-77
2021/09/24 00:17:37;;;;;;;5.60;2.30;;;12.70;69.10;;;;;;5037415;28;20014;-77
2021/09/24 00:20:05;;;;;;;4.05;2.30;;;12.70;69.20;;;;;;5037371;28;20071;-77
2021/09/24 00:22:31;;;;;;;4.57;2.33;;;12.70;69.10;;;;;;5036040;28;20028;-77
2021/09/24 00:24:57;;;;;;;4.13;2.28;;;12.70;69.50;;;;;;5032441;28;20026;-77
2021/09/24 00:27:23;;;;;;;4.07;2.33;;;12.70;69.70;;;;;;5027137;28;20079;-77
2021/09/24 00:29:48;;;;;;;4.53;2.00;;;12.70;69.40;;;;;;5036835;28;20025;-77
2021/09/24 00:32:14;;;;;;;4.47;1.80;;;12.70;69.20;;;;;;5037308;28;20021;-77
2021/09/24 00:34:40;;;;;;;4.53;2.03;;;12.70;69.30;;;;;;5036782;28;20411;-77
2021/09/24 00:37:06;;;;;;;3.92;2.10;;;12.70;69.10;;;;;;5037346;28;20025;-78
2021/09/24 00:39:32;;;;;;;4.72;2.10;;;12.70;69.40;;;;;;5035427;28;20026;-77
2021/09/24 00:41:58;;;;;;;4.47;2.17;;;12.70;69.40;;;;;;5035592;28;20473;-77
2021/09/24 00:44:28;;;;;;;3.60;2.00;;;12.70;69.40;;;;;;5036608;28;20053;-77
2021/09/24 00:46:55;;;;;;;4.05;2.20;;;12.70;69.20;;;;;;5037008;28;20018;-77
2021/09/24 00:49:21;;;;;;;3.67;2.10;;;12.70;69.50;;;;;;5035700;28;20029;-77
2021/09/24 00:51:47;;;;;;;4.05;2.00;;;12.70;69.60;;;;;;5036739;28;20515;-78
2021/09/24 00:54:13;;;;;;;4.50;2.25;;;12.70;69.60;;;;;;5036736;28;20075;-77
2021/09/24 00:56:39;;;;;;;4.03;2.40;;;12.70;69.70;;;;;;5036850;28;20029;-77
2021/09/24 00:59:05;;;;;;;4.70;2.10;;;12.80;69.80;;;;;;5036443;28;20103;-77
2021/09/24 01:01:31;;;;;;;3.65;2.20;;;12.80;69.70;;;;;;5036790;28;20026;-77
2021/09/24 01:03:56;;;;;;;3.55;1.90;;;12.80;69.50;;;;;;5023734;28;20033;-76
2021/09/24 01:06:22;;;;;;;4.43;2.17;;;12.80;69.50;;;;;;5038633;28;20029;-77
2021/09/24 01:08:49;;;;;;;3.50;1.88;;;12.90;69.80;;;;;;5036073;28;20079;-77
2021/09/24 01:11:15;;;;;;;5.40;2.08;;;12.90;69.80;;;;;;5040122;28;20056;-77
2021/09/24 01:13:41;;;;;;;4.10;2.10;;;12.90;70.20;;;;;;5040352;28;20037;-77
2021/09/24 01:16:06;;;;;;;4.53;2.67;;;13.00;69.90;;;;;;5039130;28;20048;-77
2021/09/24 01:18:32;;;;;;;4.82;2.50;;;13.00;70.00;;;;;;5040305;28;20065;-77
2021/09/24 01:21:00;;;;;;;5.75;2.63;;;13.00;69.90;;;;;;5040248;28;20108;-77
2021/09/24 01:23:26;;;;;;;3.75;2.22;;;13.00;69.70;;;;;;5040154;28;20029;-77
2021/09/24 01:25:51;;;;;;;5.95;2.50;;;13.00;69.90;;;;;;5026760;28;20029;-77
2021/09/24 01:28:17;;;;;;;4.63;2.60;;;12.90;70.00;;;;;;5037483;28;20022;-77
2021/09/24 01:30:43;;;;;;;4.35;2.53;;;12.90;69.90;;;;;;5039907;28;20480;-77
2021/09/24 01:33:09;;;;;;;4.72;2.65;;;12.90;70.00;;;;;;5039704;28;20104;-77
2021/09/24 01:35:35;;;;;;;3.55;2.50;;;12.90;70.20;;;;;;5039636;28;20049;-77
2021/09/24 01:38:01;;;;;;;4.32;2.00;;;13.00;70.20;;;;;;5039666;28;20026;-78
2021/09/24 01:40:26;;;;;;;4.18;2.40;;;13.00;70.40;;;;;;5039829;28;20092;-77
2021/09/24 01:42:53;;;;;;;4.22;2.30;;;13.00;71.20;;;;;;5039307;28;20030;-77
2021/09/24 01:45:20;;;;;;;4.80;2.45;;;13.00;70.80;;;;;;5039725;28;20026;-77
2021/09/24 01:47:47;;;;;;;5.60;3.03;;;13.00;70.40;;;;;;5039632;28;20535;-77
2021/09/24 01:50:13;;;;;;;4.03;2.53;;;13.00;70.20;;;;;;5038691;28;20025;-77
2021/09/24 01:52:39;;;;;;;5.07;2.90;;;13.00;69.90;;;;;;5026672;28;20473;-77
2021/09/24 01:55:07;;;;;;;4.68;2.63;;;13.00;70.60;;;;;;5039468;28;20071;-77
2021/09/24 01:57:33;;;;;;;4.28;2.25;;;13.00;70.20;;;;;;5039259;28;20036;-77
2021/09/24 01:59:59;;;;;;;4.10;2.35;;;13.00;72.10;;;;;;5038024;28;20397;-77
2021/09/24 02:02:24;;;;;;;5.07;2.70;;;13.00;70.80;;;;;;5039497;28;20026;-77
2021/09/24 02:04:50;;;;;;;4.38;2.10;;;13.00;70.40;;;;;;5039319;28;20025;-77
2021/09/24 02:07:16;;;;;;;3.55;2.10;;;13.00;70.10;;;;;;5039323;28;20061;-77
2021/09/24 02:09:42;;;;;;;4.13;2.00;;;12.90;69.70;;;;;;5038854;28;20092;-77
2021/09/24 02:12:08;;;;;;;4.40;1.98;;;12.90;69.60;;;;;;5039033;28;20032;-77
2021/09/24 02:14:34;;;;;;;6.20;2.00;;;12.90;70.10;;;;;;5039095;28;20026;-77
2021/09/24 02:17:03;;;;;;;4.25;2.33;;;12.80;69.80;;;;;;5038337;28;20024;-77
2021/09/24 02:19:29;;;;;;;6.05;2.50;;;12.90;71.20;;;;;;5038982;28;20029;-77
2021/09/24 02:21:57;;;;;;;5.15;2.50;;;12.90;70.90;;;;;;5038987;28;20018;-78
2021/09/24 02:24:23;;;;;;;4.38;2.47;;;12.90;70.80;;;;;;5038820;28;20033;-77
2021/09/24 02:26:49;;;;;;;5.32;2.30;;;13.00;71.10;;;;;;5025910;28;20072;-78
2021/09/24 02:29:15;;;;;;;4.68;2.35;;;13.10;70.90;;;;;;5038721;28;20464;-77
2021/09/24 02:31:41;;;;;;;3.38;1.95;;;13.10;70.90;;;;;;5025688;28;20013;-78
2021/09/24 02:34:08;;;;;;;4.03;2.53;;;13.20;70.50;;;;;;5038433;28;20547;-77
2021/09/24 02:36:33;;;;;;;5.70;2.53;;;13.30;71.40;;;;;;5038787;28;20105;-78
2021/09/24 02:38:59;;;;;;;4.15;1.90;;;13.30;71.50;;;;;;5038637;28;20148;-78
2021/09/24 02:41:25;;;;;;;3.97;2.17;;;13.40;70.80;;;;;;5038684;28;20018;-78
2021/09/24 02:43:51;;;;;;;4.30;2.03;;;13.40;70.40;;;;;;5038171;28;20025;-78
2021/09/24 02:46:17;;;;;;;5.47;2.67;;;13.40;70.10;;;;;;5038635;28;20033;-78
2021/09/24 02:48:43;;;;;;;5.80;2.38;;;13.40;74.60;;;;;;5037437;28;20029;-78
2021/09/24 02:51:09;;;;;;;4.93;2.50;;;13.40;74.80;;;;;;5037420;28;20032;-77
2021/09/24 02:53:34;;;;;;;5.28;2.33;;;13.40;73.70;;;;;;5038083;28;20495;-77
2021/09/24 02:56:00;;;;;;;4.60;2.25;;;13.30;72.40;;;;;;5038509;28;20021;-77
2021/09/24 02:58:26;;;;;;;4.15;2.05;;;13.30;71.60;;;;;;5036637;28;20029;-77
2021/09/24 03:00:52;;;;;;;4.93;2.22;;;13.30;71.80;;;;;;5038444;28;20033;-78
2021/09/24 03:03:17;;;;;;;4.07;2.22;;;13.30;71.50;;;;;;5038153;28;20128;-77
2021/09/24 03:05:43;;;;;;;3.83;2.20;;;13.20;71.10;;;;;;5038206;28;20028;-77
2021/09/24 03:08:09;;;;;;;4.05;2.10;;;13.20;71.00;;;;;;5033287;28;20472;-78
2021/09/24 03:10:35;;;;;;;4.57;2.35;;;13.30;71.00;;;;;;5038034;28;20026;-77
2021/09/24 03:13:01;;;;;;;5.50;2.83;;;13.20;72.20;;;;;;5037767;28;20018;-77
2021/09/24 03:15:27;;;;;;;4.03;2.42;;;13.30;75.30;;;;;;5038134;28;20384;-77
2021/09/24 03:17:53;;;;;;;4.80;2.00;;;13.20;75.20;;;;;;5037888;28;20021;-78
2021/09/24 03:20:18;;;;;;;4.20;2.20;;;13.30;73.80;;;;;;5036626;28;20089;-78
2021/09/24 03:22:44;;;;;;;5.40;3.47;;;13.30;73.70;;;;;;5037698;28;20436;-77
2021/09/24 03:25:10;;;;;;;4.70;2.42;;;13.30;77.20;;;;;;5030019;28;20025;-77
2021/09/24 03:27:38;;;;;;;4.55;2.83;;;13.40;77.00;;;;;;5030962;28;20026;-77
2021/09/24 03:30:06;;;;;;;5.45;2.95;;;13.40;77.30;;;;;;5025113;28;20384;-77
2021/09/24 03:32:33;;;;;;;6.20;3.38;;;13.50;76.70;;;;;;5037522;28;20025;-77
2021/09/24 03:35:00;;;;;;;5.40;2.78;;;13.50;77.70;;;;;;5036518;28;20099;-78
2021/09/24 03:37:26;;;;;;;3.97;2.20;;;13.50;76.40;;;;;;5037455;28;20025;-77
2021/09/24 03:39:52;;;;;;;8.38;3.20;;;13.50;74.80;;;;;;5037643;28;20032;-77
2021/09/24 03:42:18;;;;;;;4.70;2.90;;;13.60;75.70;;;;;;5037196;28;20021;-77
2021/09/24 03:44:45;;;;;;;5.15;2.50;;;13.60;74.90;;;;;;5037752;28;20380;-77
2021/09/24 03:47:11;;;;;;;4.43;2.83;;;13.60;74.00;;;;;;5037358;28;20388;-78
2021/09/24 03:49:36;;;;;;;5.40;2.72;;;13.50;73.40;;;;;;5036431;28;20092;-78
2021/09/24 03:52:03;;;;;;;7.05;3.05;;;13.60;73.30;;;;;;5037308;28;20079;-77
2021/09/24 03:54:29;;;;;;;5.88;2.80;;;13.60;73.50;;;;;;5037392;28;20024;-77
2021/09/24 03:56:56;;;;;;;4.50;2.78;;;13.60;75.70;;;;;;5037352;28;20025;-77
2021/09/24 03:59:22;;;;;;;5.30;2.42;;;13.60;75.20;;;;;;5037213;28;20036;-77
2021/09/24 04:01:48;;;;;;;3.90;2.72;;;13.60;74.70;;;;;;5035952;28;20026;-77
2021/09/24 04:04:14;;;;;;;6.88;3.20;;;13.60;75.50;;;;;;5037304;28;20392;-77
2021/09/24 04:06:40;;;;;;;4.93;2.97;;;13.60;75.00;;;;;;5037144;28;20029;-77
2021/09/24 04:09:06;;;;;;;3.40;2.20;;;13.70;74.70;;;;;;5032904;28;20033;-77
2021/09/24 04:11:31;;;;;;;3.92;2.15;;;13.70;73.70;;;;;;5037022;28;20100;-77
2021/09/24 04:13:57;;;;;;;5.28;1.90;;;13.60;73.00;;;;;;5037151;28;20071;-77
2021/09/24 04:16:23;;;;;;;4.45;2.20;;;13.70;72.60;;;;;;5037100;28;20495;-77
2021/09/24 04:18:50;;;;;;;3.97;2.42;;;13.60;72.40;;;;;;5037403;28;20013;-77
2021/09/24 04:21:16;;;;;;;4.35;2.20;;;13.70;72.20;;;;;;5036976;28;20048;-77
2021/09/24 04:23:42;;;;;;;3.85;2.00;;;13.60;71.80;;;;;;5035971;28;20036;-77
2021/09/24 04:26:08;;;;;;;4.03;2.00;;;13.60;71.70;;;;;;5022651;28;20038;-76
2021/09/24 04:28:36;;;;;;;3.67;2.10;;;13.60;71.70;;;;;;5037007;28;20025;-77
2021/09/24 04:31:02;;;;;;;4.32;2.30;;;13.60;71.40;;;;;;5036928;28;20029;-76
2021/09/24 04:33:27;;;;;;;4.00;2.10;;;13.50;72.10;;;;;;5037028;28;20029;-82
2021/09/24 04:35:53;;;;;;;5.10;2.30;;;13.50;71.60;;;;;;5036655;28;20045;-80
2021/09/24 04:38:19;;;;;;;3.53;2.17;;;13.50;72.10;;;;;;5037234;28;20022;-79
2021/09/24 04:40:45;;;;;;;5.15;2.33;;;13.50;72.50;;;;;;5037868;28;20022;-79
2021/09/24 04:43:11;;;;;;;4.63;2.38;;;13.50;72.80;;;;;;5040749;28;20053;-79
2021/09/24 04:45:37;;;;;;;4.72;2.63;;;13.50;72.70;;;;;;5040686;28;20032;-79
2021/09/24 04:48:03;;;;;;;4.70;2.70;;;13.50;73.50;;;;;;5039487;28;20093;-82
2021/09/24 04:50:31;;;;;;;6.03;2.47;;;13.60;73.00;;;;;;5039374;28;20049;-76
2021/09/24 04:52:56;;;;;;;4.95;3.05;;;13.60;73.00;;;;;;5039600;28;20080;-76
2021/09/24 04:55:25;;;;;;;5.47;2.42;;;13.60;73.00;;;;;;5040474;28;20029;-87
2021/09/24 04:57:51;;;;;;;5.30;3.08;;;13.60;73.40;;;;;;5040379;28;20022;-81
2021/09/24 05:00:18;;;;;;;4.80;2.50;;;13.60;73.00;;;;;;5040517;28;20047;-83
2021/09/24 05:02:44;;;;;;;5.38;3.70;;;13.70;72.60;;;;;;5040532;28;20025;-86
2021/09/24 05:05:10;;;;;;;5.22;2.90;;;13.70;72.80;;;;;;5040414;28;20026;-79
2021/09/24 05:07:37;;;;;;;6.93;3.08;;;13.70;73.10;;;;;;5039203;28;20025;-77
2021/09/24 05:10:07;;;;;;;8.85;3.42;;;13.80;73.90;;;;;;5036313;28;20033;-80
2021/09/24 05:12:33;;;;;;;5.97;3.40;;;13.80;75.20;;;;;;5038651;28;20113;-72
2021/09/24 05:14:59;;;;;;;7.13;3.67;;;13.80;74.00;;;;;;5038911;28;20496;-80
2021/09/24 05:17:25;;;;;;;4.47;2.90;;;13.80;73.70;;;;;;5039004;28;20029;-80
2021/09/24 05:19:52;;;;;;;6.78;2.65;;;13.80;73.70;;;;;;5040082;28;20030;-78
2021/09/24 05:22:18;;;;;;;6.00;2.60;;;13.80;73.20;;;;;;5040239;28;20021;-82
2021/09/24 05:24:44;;;;;;;5.85;3.10;;;13.80;72.90;;;;;;5037086;28;20037;-79
2021/09/24 05:27:09;;;;;;;4.88;2.85;;;13.90;72.60;;;;;;5028396;28;20018;-76
2021/09/24 05:29:35;;;;;;;5.57;2.65;;;13.80;72.40;;;;;;5038881;28;20503;-75
2021/09/24 05:32:01;;;;;;;5.18;2.58;;;13.90;73.20;;;;;;5039884;28;20052;-75
2021/09/24 05:34:27;;;;;;;5.40;2.60;;;13.90;72.50;;;;;;5039644;28;20045;-75
2021/09/24 05:36:53;;;;;;;5.00;2.60;;;13.90;72.30;;;;;;5039963;28;20029;-75
2021/09/24 05:39:19;;;;;;;4.45;2.70;;;13.90;72.30;;;;;;5039703;28;20049;-75
2021/09/24 05:41:45;;;;;;;6.55;3.08;;;13.90;72.50;;;;;;5039752;28;20041;-74
2021/09/24 05:44:11;;;;;;;6.38;2.80;;;13.90;72.10;;;;;;5039371;28;20018;-74
2021/09/24 05:46:37;;;;;;;4.93;2.72;;;14.00;72.30;;;;;;5039789;28;20073;-74
2021/09/24 05:49:03;;;;;;;4.60;2.80;;;14.00;74.10;;;;;;5039536;28;20025;-73
2021/09/24 05:51:29;;;;;;;5.40;3.20;;;14.00;72.90;;;;;;5036880;28;20408;-72
2021/09/24 05:53:55;;;;;;;5.22;3.13;;;14.00;73.00;;;;;;5037407;28;20017;-73
2021/09/24 05:56:21;;;;;;;7.05;4.10;;;14.00;73.20;;;;;;5039570;28;20472;-74
2021/09/24 05:58:47;;;;;;;7.30;3.67;;;14.10;75.80;;;;;;5039175;28;20076;-74
2021/09/24 06:01:13;;;;;;;7.22;3.17;;;14.10;75.90;;;;;;5039144;28;20025;-73
2021/09/24 06:03:39;;;;;;;5.55;2.97;;;14.10;74.50;;;;;;5039119;28;20025;-75
2021/09/24 06:06:05;;;;;;;6.80;3.58;;;14.10;73.70;;;;;;5039312;28;20018;-74
2021/09/24 06:08:31;;;;;;;5.32;3.30;;;14.20;74.90;;;;;;5034836;28;20053;-74
2021/09/24 06:10:57;;;;;;;5.10;3.25;;;14.20;74.50;;;;;;5039155;28;20025;-75
2021/09/24 06:13:23;;;;;;;6.60;3.13;;;14.20;73.50;;;;;;5038575;28;20029;-74
2021/09/24 06:15:49;;;;;;;5.88;3.38;;;14.20;73.00;;;;;;5039289;28;20045;-75
2021/09/24 06:18:15;;;;;;;5.80;3.10;;;14.30;74.10;;;;;;5039199;28;20095;-76
2021/09/24 06:20:42;;;;;;;4.95;3.03;;;14.30;73.60;;;;;;5039136;28;20029;-76
2021/09/24 06:23:08;;;;;;;5.90;3.50;;;14.30;72.70;;;;;;5038401;28;20044;-76
2021/09/24 06:25:34;;;;;;;5.05;3.00;;;14.30;72.50;;;;;;5028624;28;20034;-75
2021/09/24 06:28:00;;;;;;;7.05;3.90;;;14.40;72.90;;;;;;5034845;28;20101;-76
2021/09/24 06:30:26;;;;;;;7.20;4.07;;;14.40;75.40;;;;;;5038537;28;20053;-75
2021/09/24 06:32:53;;;;;;;8.77;4.97;;;14.50;77.60;;;;;;5037103;28;20069;-75
2021/09/24 06:35:19;;;;;;;11.93;5.53;;;14.50;81.30;;;;;;5038452;28;20412;-75
2021/09/24 06:37:45;;;;;;;8.18;4.72;;;14.60;81.70;;;;;;5038361;28;20029;-75
2021/09/24 06:40:12;;;;;;;7.22;4.60;;;14.60;82.10;;;;;;5038531;28;20037;-75
2021/09/24 06:42:38;;;;;;;7.07;4.38;;;14.60;81.20;;;;;;5036907;28;20025;-75
2021/09/24 06:45:10;;;;;;;7.03;3.67;;;14.60;80.00;;;;;;5038658;28;20034;-75
2021/09/24 06:47:36;;;;;;;5.65;3.78;;;14.70;78.20;;;;;;5038145;28;20055;-75
2021/09/24 06:50:03;;;;;;;5.80;3.63;;;14.70;77.20;;;;;;5037316;28;20500;-75
2021/09/24 06:52:29;;;;;;;5.82;3.00;;;14.70;76.40;;;;;;5037957;28;20510;-75
2021/09/24 06:54:55;;;;;;;6.38;3.60;;;14.70;75.60;;;;;;5038449;28;20053;-75
2021/09/24 06:57:21;;;;;;;5.57;3.13;;;14.70;75.90;;;;;;5037908;28;20460;-75
2021/09/24 06:59:47;;;;;;;6.60;3.40;;;14.70;75.30;;;;;;5038240;28;20029;-75
2021/09/24 07:02:12;;;;;;;6.60;4.10;;;14.80;78.00;;;;;;5037690;28;20025;-75
2021/09/24 07:04:38;;;;;;;6.30;3.42;;;14.80;79.60;;;;;;5037859;28;20032;-75
2021/09/24 07:07:04;;;;;;;5.18;2.85;;;14.90;80.20;;;;;;5038042;28;20389;-75
2021/09/24 07:09:30;;;;;;;4.57;2.38;;;14.90;78.70;;;;;;5032908;28;20021;-75
2021/09/24 07:11:56;;;;;;;5.85;2.90;;;14.90;77.50;;;;;;5037701;28;20022;-75
2021/09/24 07:14:22;;;;;;;6.55;2.83;;;14.90;77.00;;;;;;5037965;28;20021;-75
2021/09/24 07:16:49;;;;;;;5.00;2.70;;;14.90;76.10;;;;;;5037561;28;20017;-75
2021/09/24 07:19:15;;;;;;;6.85;2.80;;;14.90;75.70;;;;;;5038253;28;20021;-75
2021/09/24 07:21:41;;;;;;;5.65;2.90;;;14.90;75.10;;;;;;5037560;28;20025;-75
2021/09/24 07:24:07;;;;;;;4.80;2.40;;;15.00;74.90;;;;;;5037519;28;20029;-75
2021/09/24 07:26:34;;;;;;;4.43;2.30;;;15.00;74.50;;;;;;5024191;28;20087;-75
2021/09/24 07:29:00;;;;;;;4.55;2.10;;;15.00;74.40;;;;;;5037561;28;20164;-76
2021/09/24 07:31:27;;;;;;;3.50;1.77;;;15.00;74.40;;;;;;5037124;28;20017;-75
2021/09/24 07:33:53;;;;;;;5.47;1.75;;;15.10;76.50;;;;;;5037046;28;20022;-76
2021/09/24 07:36:19;;;;;;;3.97;1.60;;;15.20;77.50;;;;;;5037397;28;20084;-74
2021/09/24 07:38:47;;;;;;;3.40;1.60;;;15.20;77.30;;;;;;5037438;28;20027;-74
2021/09/24 07:41:15;;;;;;;4.03;1.50;;;15.20;76.90;;;;;;5036145;28;20033;-74
2021/09/24 07:43:42;;;;;;;6.43;1.85;;;15.30;79.00;;;;;;5037087;28;20060;-74
2021/09/24 07:46:10;;;;;;;5.28;1.20;;;15.30;78.20;;;;;;5037421;28;20476;-74
2021/09/24 07:48:35;;;;;;;3.35;1.00;;;15.30;77.60;;;;;;5037357;28;20021;-75
2021/09/24 07:51:03;;;;;;;2.63;0.90;;;15.30;76.50;;;;;;5024733;28;20071;-75
2021/09/24 07:53:29;;;;;;;3.28;0.90;;;15.40;75.80;;;;;;5037200;28;20013;-75
2021/09/24 07:55:55;;;;;;;2.08;0.80;;;15.40;76.00;;;;;;5037678;28;20033;-75
2021/09/24 07:58:21;;;;;;;3.95;0.90;;;15.40;75.40;;;;;;5037148;28;20014;-75
2021/09/24 08:00:47;;;;;;;2.28;0.70;;;15.50;75.30;;;;;;5037241;28;20021;-75
2021/09/24 08:03:13;;;;;;;1.25;0.60;;;15.50;75.10;;;;;;5036935;28;20033;-75
2021/09/24 08:05:39;;;;;;;4.07;1.33;;;15.50;75.20;;;;;;5036110;28;20037;-75
2021/09/24 08:08:05;;;;;;;2.67;1.48;;;15.60;75.60;;;;;;5032797;28;20389;-75
2021/09/24 08:10:31;;;;;;;3.40;1.58;;;15.60;75.40;;;;;;5037182;28;20021;-75
2021/09/24 08:12:57;;;;;;;3.90;1.80;;;15.60;74.70;;;;;;5036794;28;20071;-75
2021/09/24 08:15:24;;;;;;;5.13;1.63;;;15.60;74.60;;;;;;5036394;28;20025;-75
2021/09/24 08:17:50;;;;;;;3.63;1.52;;;15.70;74.60;;;;;;5041216;28;20022;-75
2021/09/24 08:20:16;;;;;;;5.65;3.33;;;15.70;75.40;;;;;;5041206;28;20026;-74
2021/09/24 08:22:43;;;;;;;5.40;2.92;;;15.70;77.90;;;;;;5041162;28;20035;-75
2021/09/24 08:25:14;;;;;;;5.70;3.72;;;15.80;76.10;;;;;;5033446;28;20053;-75
2021/09/24 08:27:41;;;;;;;5.90;3.65;;;15.80;75.70;;;;;;5034675;28;20017;-74
2021/09/24 08:30:10;;;;;;;6.03;4.05;;;15.80;75.10;;;;;;5040991;28;20405;-75
2021/09/24 08:32:39;;;;;;;5.78;3.85;;;15.90;76.50;;;;;;5041137;28;20025;-75
2021/09/24 08:35:10;;;;;;;5.90;3.72;;;15.90;77.20;;;;;;5040702;28;20084;-75
2021/09/24 08:37:37;;;;;;;4.30;2.13;;;16.00;77.90;;;;;;5040788;28;20018;-75
2021/09/24 08:40:05;;;;;;;3.22;1.70;;;16.00;76.70;;;;;;5040868;28;20021;-75
2021/09/24 08:42:31;;;;;;;4.03;1.50;;;16.00;76.00;;;;;;5040519;28;20013;-74
2021/09/24 08:44:56;;;;;;;2.13;0.90;;;16.10;75.80;;;;;;5040891;28;20037;-75
2021/09/24 08:47:24;;;;;;;3.78;1.00;;;16.20;76.90;;;;;;5040573;28;20029;-75
2021/09/24 08:49:50;;;;;;;1.85;0.82;;;16.20;75.60;;;;;;5039671;28;20029;-75
2021/09/24 08:52:16;;;;;;;1.83;1.00;;;16.20;75.30;;;;;;5040246;28;20093;-75
2021/09/24 08:54:41;;;;;;;3.65;0.95;;;16.30;77.10;;;;;;5040247;28;20034;-75
2021/09/24 08:57:14;;;;;;;2.08;0.90;;;16.30;76.30;;;;;;5039886;28;20017;-75
2021/09/24 08:59:40;;;;;;;4.43;0.82;;;16.40;76.40;;;;;;5040539;28;20095;-75
2021/09/24 09:02:07;;;;;;;2.35;0.88;;;16.40;75.50;;;;;;5038401;28;20029;-75
2021/09/24 09:04:42;;;;;;;1.90;0.70;;;16.50;75.60;;;;;;5038553;28;20033;-74
2021/09/24 09:07:16;;;;;;;2.40;1.00;;;16.50;75.30;;;;;;5027049;28;20093;-75
2021/09/24 09:09:45;;;;;;;2.88;1.00;;;16.60;75.20;;;;;;5036113;28;20036;-75
2021/09/24 09:12:15;;;;;;;2.67;1.20;;;16.60;75.70;;;;;;5039745;28;20033;-74
2021/09/24 09:14:57;;;;;;;2.80;1.20;;;16.70;74.90;;;;;;5040069;28;20026;-74
2021/09/24 09:17:39;;;;;;;2.28;0.80;;;16.80;75.70;;;;;;5040059;28;20064;-75
2021/09/24 09:20:30;;;;;;;2.15;0.82;;;17.00;75.20;;;;;;5026580;28;20029;-75
2021/09/24 09:22:59;;;;;;;1.20;0.60;;;17.20;75.00;;;;;;5039241;28;20052;-75
2021/09/24 09:25:26;;;;;;;1.90;0.70;;;17.40;74.90;;;;;;5031346;28;20026;-75
2021/09/24 09:27:54;;;;;;;1.48;0.60;;;17.70;74.80;;;;;;5033060;28;20520;-75
2021/09/24 09:30:22;;;;;;;1.83;0.80;;;17.90;74.40;;;;;;5039075;28;20116;-75
2021/09/24 09:33:10;;;;;;;2.30;0.98;;;18.10;74.00;;;;;;5037938;28;20107;-75
2021/09/24 09:35:48;;;;;;;1.85;0.88;;;18.30;73.40;;;;;;5039237;28;20040;-75
2021/09/24 09:38:21;;;;;;;1.52;0.68;;;18.30;73.00;;;;;;5027154;28;20067;-75
2021/09/24 09:40:52;;;;;;;1.20;0.50;;;18.30;72.90;;;;;;5039554;28;20026;-75
2021/09/24 09:43:28;;;;;;;1.30;0.52;;;18.30;72.80;;;;;;5039266;28;20061;-75
2021/09/24 09:45:55;;;;;;;2.03;0.68;;;18.40;72.90;;;;;;5039280;28;20026;-75
2021/09/24 09:48:21;;;;;;;0.80;0.45;;;18.50;72.80;;;;;;5039493;28;20061;-75
2021/09/24 09:50:47;;;;;;;1.17;0.63;;;18.60;72.40;;;;;;5037652;28;20026;-75
2021/09/24 09:53:17;;;;;;;1.00;0.50;;;18.60;72.00;;;;;;5039245;28;20075;-76
2021/09/24 09:55:57;;;;;;;1.48;0.60;;;18.60;71.70;;;;;;5038854;28;20037;-76
2021/09/24 09:58:27;;;;;;;2.03;1.00;;;18.60;71.50;;;;;;5039130;28;20083;-75
2021/09/24 10:00:58;;;;;;;1.42;0.50;;;18.60;71.40;;;;;;5039187;28;20037;-75
2021/09/24 10:03:42;;;;;;;1.77;0.80;;;18.50;71.20;;;;;;5038689;28;20034;-75
2021/09/24 10:06:39;;;;;;;1.20;0.60;;;18.50;71.10;;;;;;5038875;28;20048;-75
2021/09/24 10:09:05;;;;;;;1.35;0.60;;;18.50;71.00;;;;;;5031919;28;20539;-75
2021/09/24 10:11:37;;;;;;;1.25;0.60;;;18.40;71.10;;;;;;5038527;28;20026;-75
2021/09/24 10:14:11;;;;;;;1.23;0.63;;;18.50;71.00;;;;;;5039080;28;20447;-75
2021/09/24 10:16:43;;;;;;;1.48;0.68;;;18.40;70.80;;;;;;5038638;28;20033;-75
2021/09/24 10:19:09;;;;;;;1.67;0.70;;;18.40;70.70;;;;;;5039057;28;20017;-75
2021/09/24 10:21:36;;;;;;;1.95;0.77;;;18.40;70.60;;;;;;5038636;28;20382;-76
2021/09/24 10:24:04;;;;;;;2.10;0.70;;;18.40;70.50;;;;;;5038761;28;20096;-75
2021/09/24 10:26:50;;;;;;;1.65;0.70;;;18.40;70.50;;;;;;5025416;28;20056;-75
2021/09/24 10:29:31;;;;;;;3.00;0.90;;;18.40;70.50;;;;;;5038444;28;20038;-75
2021/09/24 10:32:19;;;;;;;1.15;0.60;;;18.50;70.30;;;;;;5038577;28;20415;-75
2021/09/24 10:35:03;;;;;;;2.13;0.60;;;18.50;70.20;;;;;;5038306;28;20382;-75
2021/09/24 10:37:35;;;;;;;1.95;0.70;;;18.50;70.40;;;;;;5037529;28;20100;-75
2021/09/24 10:40:20;;;;;;;2.50;0.65;;;18.60;70.40;;;;;;5037911;28;20079;-75
2021/09/24 10:42:56;;;;;;;1.85;0.75;;;18.60;70.20;;;;;;5037796;28;20029;-76
2021/09/24 10:45:34;;;;;;;1.73;0.60;;;18.70;70.40;;;;;;5037109;28;20083;-75
2021/09/24 10:48:20;;;;;;;1.77;0.70;;;18.80;70.00;;;;;;5026809;28;20076;-75
2021/09/24 10:50:55;;;;;;;2.08;0.65;;;18.90;70.00;;;;;;5030127;28;20463;-75
2021/09/24 10:53:23;;;;;;;1.40;0.65;;;19.00;70.00;;;;;;5038692;28;20384;-75
2021/09/24 10:55:52;;;;;;;2.88;0.80;;;19.00;69.90;;;;;;5038149;28;20033;-75
2021/09/24 10:58:27;;;;;;;1.20;0.60;;;19.10;70.50;;;;;;5037701;28;20037;-76
2021/09/24 11:01:05;;;;;;;2.70;0.90;;;19.10;69.70;;;;;;5036868;28;20030;-82
2021/09/24 11:03:33;;;;;;;3.60;0.98;;;19.20;69.50;;;;;;5037736;28;20451;-81
2021/09/24 11:06:03;;;;;;;3.92;1.40;;;19.20;69.50;;;;;;5038075;28;20060;-80
2021/09/24 11:08:38;;;;;;;3.03;1.27;;;19.30;69.50;;;;;;5033114;28;20044;-80
2021/09/24 11:11:11;;;;;;;3.55;1.30;;;19.30;69.20;;;;;;5037824;28;20076;-77
2021/09/24 11:13:44;;;;;;;2.53;1.10;;;19.30;69.30;;;;;;5037660;28;20561;-78
2021/09/24 11:16:16;;;;;;;3.75;1.20;;;19.30;69.70;;;;;;5038007;28;20017;-81
2021/09/24 11:18:55;;;;;;;1.75;0.90;;;19.40;69.30;;;;;;5037848;28;20029;-82
2021/09/24 11:21:30;;;;;;;2.15;1.00;;;19.40;69.30;;;;;;5037428;28;20506;-80
2021/09/24 11:23:57;;;;;;;2.97;1.08;;;19.40;69.30;;;;;;5037586;28;20506;-79
2021/09/24 11:26:32;;;;;;;1.83;0.73;;;19.40;69.10;;;;;;5024246;28;20036;-76
2021/09/24 11:29:13;;;;;;;2.70;1.10;;;19.50;69.10;;;;;;5037451;28;20025;-76
2021/09/24 11:32:00;;;;;;;3.30;1.30;;;19.60;69.20;;;;;;5024593;28;20105;-76
2021/09/24 11:34:39;;;;;;;38.63;26.45;;;19.70;69.30;;;;;;5037245;28;20049;-76
2021/09/24 11:37:07;;;;;;;21.52;15.63;;;19.80;69.40;;;;;;5037200;28;20020;-76
2021/09/24 11:39:34;;;;;;;9.38;5.60;;;20.00;69.50;;;;;;5036948;28;20029;-76
2021/09/24 11:42:16;;;;;;;6.60;3.28;;;20.20;69.40;;;;;;5037161;28;20029;-75
2021/09/24 11:44:47;;;;;;;3.30;1.60;;;20.50;69.10;;;;;;5025808;28;20022;-76
2021/09/24 11:47:21;;;;;;;2.90;1.53;;;20.80;68.10;;;;;;5037346;28;20060;-75
2021/09/24 11:49:52;;;;;;;2.28;0.90;;;21.00;66.90;;;;;;5032533;28;20030;-75
2021/09/24 11:52:18;;;;;;;2.40;1.05;;;21.00;67.10;;;;;;5033643;28;20112;-75
2021/09/24 11:54:44;;;;;;;2.38;1.10;;;21.00;67.40;;;;;;5035411;28;20045;-76
2021/09/24 11:57:15;;;;;;;2.38;1.00;;;21.00;67.40;;;;;;5036969;28;20105;-76
2021/09/24 11:59:41;;;;;;;2.47;1.13;;;21.10;67.40;;;;;;5036230;28;20033;-75
2021/09/24 12:02:07;;;;;;;2.28;1.10;;;21.10;66.80;;;;;;5035360;28;20025;-76
2021/09/24 12:04:32;;;;;;;2.40;1.10;;;21.10;66.70;;;;;;5037192;28;20029;-76
2021/09/24 12:06:58;;;;;;;2.72;1.10;;;21.10;66.90;;;;;;5036716;28;20057;-76
2021/09/24 12:09:25;;;;;;;3.47;1.20;;;21.10;66.80;;;;;;5031296;28;20029;-76
2021/09/24 12:11:53;;;;;;;2.67;1.10;;;21.10;66.20;;;;;;5035690;28;20040;-75
2021/09/24 12:14:23;;;;;;;2.30;1.23;;;21.10;66.20;;;;;;5035970;28;20030;-76
2021/09/24 12:16:52;;;;;;;3.45;1.20;;;21.20;65.90;;;;;;5035774;28;20404;-76
2021/09/24 12:19:24;;;;;;;2.65;1.13;;;21.10;66.40;;;;;;5037209;28;20079;-76
2021/09/24 12:21:59;;;;;;;2.80;1.23;;;21.20;66.10;;;;;;5036875;28;20092;-76
2021/09/24 12:24:33;;;;;;;2.33;0.90;;;21.30;66.10;;;;;;5036754;28;20024;-76
2021/09/24 12:27:26;;;;;;;4.35;1.30;;;21.30;66.10;;;;;;5025022;28;20057;-76
2021/09/24 12:29:52;;;;;;;;;;;21.40;65.30;;;;;;5037167;28;20467;-76
2021/09/24 12:32:23;;;;;;;3.15;1.25;;;21.40;65.70;;;;;;5037154;28;20372;-76
2021/09/24 12:34:53;;;;;;;3.22;1.40;;;21.40;65.50;;;;;;5036369;28;20076;-75
2021/09/24 12:37:40;;;;;;;3.38;1.58;;;21.40;65.70;;;;;;5036603;28;20018;-75
2021/09/24 12:40:15;;;;;;;2.75;1.17;;;21.40;65.10;;;;;;5036710;28;20080;-75
2021/09/24 12:42:44;;;;;;;3.35;1.30;;;21.30;64.90;;;;;;5036224;28;20022;-76
2021/09/24 12:45:24;;;;;;;3.00;1.58;;;21.30;65.30;;;;;;5036869;28;20049;-75
2021/09/24 12:47:50;;;;;;;2.90;1.42;;;21.30;65.10;;;;;;5024218;28;20052;-76
2021/09/24 12:50:16;;;;;;;2.58;1.20;;;21.30;65.20;;;;;;5032047;28;20030;-75
2021/09/24 12:52:42;;;;;;;2.22;1.05;;;21.30;65.20;;;;;;5036704;28;20014;-76